createdAt,value
2022-08-30T03:52:12.870Z,23.2
2022-08-30T03:58:01.016Z,23
2022-08-30T04:03:25.270Z,22.9
2022-08-30T04:09:07.043Z,22.8
2022-08-30T04:14:21.768Z,22.8
2022-08-30T04:19:43.523Z,22.5
2022-08-30T04:25:08.717Z,22.6
2022-08-30T04:30:46.747Z,22.7
2022-08-30T04:36:24.774Z,22.7
2022-08-30T04:42:04.788Z,22.6
2022-08-30T04:47:41.915Z,22.6
2022-08-30T04:53:05.029Z,22.5
2022-08-30T04:58:42.907Z,22.6
2022-08-30T05:04:32.547Z,22.6
2022-08-30T05:10:11.445Z,22.5
2022-08-30T05:15:53.025Z,22.4
2022-08-30T05:21:33.774Z,22.4
2022-08-30T05:27:11.519Z,22.4
2022-08-30T05:32:54.904Z,22.4
2022-08-30T05:38:32.745Z,22.3
2022-08-30T05:44:41.613Z,22.3
2022-08-30T05:50:25.464Z,22.6
2022-08-30T05:56:03.693Z,22.8
2022-08-30T06:01:40.874Z,22.6
2022-08-30T06:07:49.781Z,22.6
2022-08-30T06:13:27.062Z,22.5
2022-08-30T06:19:12.097Z,22.4
2022-08-30T06:25:15.214Z,22.4
2022-08-30T06:30:47.919Z,22.3
2022-08-30T06:36:42.342Z,22.3
2022-08-30T06:42:33.123Z,22.4
2022-08-30T06:48:14.359Z,22.4
2022-08-30T06:53:59.649Z,22.6
2022-08-30T06:59:44.902Z,22.8
2022-08-30T07:05:25.980Z,23
2022-08-30T07:11:10.292Z,23.1
2022-08-30T07:16:50.992Z,23.1
2022-08-30T07:22:40.517Z,23.1
2022-08-30T07:28:38.156Z,23.1
2022-08-30T07:34:19.796Z,23.2
2022-08-30T07:40:05.937Z,23.3
2022-08-30T07:45:48.537Z,23.3
2022-08-30T07:51:16.087Z,23.3
2022-08-30T07:56:55.407Z,23.3
